»·PEaware :: N6182G KSUN-KJAC

N6182G :: KSUN-KJAC

FLIGHT INFORMATION

Flight Status: Arrived
Operator: Privately registered:
United States
More flights under this callsign
Pilot: Paul A. (20189)
Aircraft: CESSNA 182 SKYLANE
(C182)
More flights by this aircraft type
Origin: KSUN Friedman Meml
United States
Destination: KJAC Jackson Hole
United States
More flights between these airports :: More routes between these airports
Route: +AUREL3 REAPS IDA V330 JAC
File this flight plan on PilotEdge
Remarks:
Altitude:
(Current/Filed)
12,000ft
Speed:
(Current/Filed)
120kts
Departed: 12-Oct-18 09:44 AM
Arrived: 12-Oct-18 11:05 AM
Distance/Time
Traveled:
155nm/1:20
Distance/Time
To Go:
Arrived

Flight Plot

Page will automatically refresh every two minutes.

Flight plan parsing failed; only flown route is shown


Map Options




Map Legend


Flown Route
Filed Route
Departure Airport
Arrival Airport
Navaid (VOR, NDB)
Fix

Horizontal Profiles

Position Reports

Time Latitude Longitude Heading Altitude Ground
Speed
12-Oct-18 09:34 43.504987 -114.298653 235 5303ft 0kts
12-Oct-18 09:35 43.504986 -114.298654 235 5303ft 0kts
12-Oct-18 09:36 43.504986 -114.298655 235 5303ft 0kts
12-Oct-18 09:37 43.504985 -114.298656 235 5303ft 0kts
12-Oct-18 09:38 43.504985 -114.298657 235 5303ft 0kts
12-Oct-18 09:39 43.504984 -114.298658 235 5303ft 0kts
12-Oct-18 09:40 43.504984 -114.298659 235 5303ft 0kts
12-Oct-18 09:41 43.504983 -114.298660 235 5303ft 0kts
12-Oct-18 09:42 43.505438 -114.298791 64 5303ft 6kts
12-Oct-18 09:43 43.507387 -114.300127 324 5303ft 4kts
12-Oct-18 09:44 43.510238 -114.302866 324 5303ft 14kts
12-Oct-18 09:45 43.511953 -114.304134 59 5303ft 0kts
12-Oct-18 09:46 43.508068 -114.299846 141 5314ft 68kts
12-Oct-18 09:47 43.490389 -114.282290 145 6143ft 76kts
12-Oct-18 09:48 43.472329 -114.270179 161 6997ft 72kts
12-Oct-18 09:49 43.446123 -114.260598 167 7457ft 119kts
12-Oct-18 09:50 43.411344 -114.248361 166 7852ft 134kts
12-Oct-18 09:51 43.374766 -114.235349 166 8248ft 140kts
12-Oct-18 09:52 43.337290 -114.222013 166 8753ft 131kts
12-Oct-18 09:53 43.305608 -114.201387 151 9290ft 124kts
12-Oct-18 09:54 43.275542 -114.178342 151 9790ft 122kts
12-Oct-18 09:55 43.245643 -114.155541 150 10257ft 124kts
12-Oct-18 09:56 43.215021 -114.132224 150 10667ft 127kts
12-Oct-18 09:57 43.183602 -114.108312 150 11070ft 130kts
12-Oct-18 09:58 43.166753 -114.072890 70 11481ft 116kts
12-Oct-18 09:59 43.174776 -114.030201 67 11895ft 115kts
12-Oct-18 10:00 43.183146 -113.985261 68 12001ft 128kts
12-Oct-18 10:01 43.192026 -113.936388 68 11996ft 135kts
12-Oct-18 10:02 43.201276 -113.886177 68 12000ft 136kts
12-Oct-18 10:03 43.210609 -113.835225 68 11999ft 139kts
12-Oct-18 10:04 43.220002 -113.783616 69 12000ft 140kts
12-Oct-18 10:05 43.229743 -113.730291 69 11996ft 147kts
12-Oct-18 10:06 43.239735 -113.675197 69 11986ft 149kts
12-Oct-18 10:07 43.249773 -113.619820 69 11986ft 149kts
12-Oct-18 10:08 43.259628 -113.564672 69 11988ft 148kts
12-Oct-18 10:09 43.269544 -113.509623 69 11987ft 149kts
12-Oct-18 10:10 43.279475 -113.454448 69 11994ft 149kts
12-Oct-18 10:11 43.289347 -113.399105 69 11993ft 148kts
12-Oct-18 10:12 43.299178 -113.343859 69 11997ft 149kts
12-Oct-18 10:13 43.309116 -113.288324 69 11997ft 149kts
12-Oct-18 10:14 43.318933 -113.232642 69 11997ft 149kts
12-Oct-18 10:15 43.328705 -113.177173 69 11999ft 149kts
12-Oct-18 10:16 43.338542 -113.121258 70 11995ft 150kts
12-Oct-18 10:17 43.346738 -113.074587 71 11997ft 151kts
12-Oct-18 10:18 43.358267 -113.008757 70 11998ft 151kts
12-Oct-18 10:19 43.368164 -112.952552 70 11997ft 151kts
12-Oct-18 10:20 43.377933 -112.896255 70 11999ft 151kts
12-Oct-18 10:21 43.386054 -112.849059 70 11996ft 153kts
12-Oct-18 10:22 43.395838 -112.792237 71 12001ft 152kts
12-Oct-18 10:23 43.405579 -112.735246 70 11998ft 152kts
12-Oct-18 10:24 43.417051 -112.668851 70 12002ft 153kts
12-Oct-18 10:25 43.425205 -112.621269 70 11998ft 153kts
12-Oct-18 10:26 43.434912 -112.564275 70 11999ft 152kts
12-Oct-18 10:27 43.444605 -112.507413 70 12001ft 153kts
12-Oct-18 10:28 43.454316 -112.450243 70 11999ft 152kts
12-Oct-18 10:29 43.465418 -112.383969 70 11999ft 153kts
12-Oct-18 10:30 43.473492 -112.336294 70 11999ft 153kts
12-Oct-18 10:31 43.483143 -112.279077 70 11998ft 154kts
12-Oct-18 10:32 43.494303 -112.212015 70 11999ft 154kts
12-Oct-18 10:33 43.502373 -112.163913 70 11998ft 154kts
12-Oct-18 10:34 43.511887 -112.106469 70 12000ft 153kts
12-Oct-18 10:35 43.520235 -112.048388 77 11999ft 156kts
12-Oct-18 10:36 43.525102 -111.988701 77 11999ft 157kts
12-Oct-18 10:37 43.530005 -111.929056 76 11997ft 157kts
12-Oct-18 10:38 43.534917 -111.869082 77 11997ft 158kts
12-Oct-18 10:39 43.539714 -111.808815 77 11996ft 158kts
12-Oct-18 10:40 43.544527 -111.748685 77 11997ft 157kts
12-Oct-18 10:41 43.549295 -111.688677 77 11995ft 157kts
12-Oct-18 10:42 43.553885 -111.629729 77 12222ft 140kts
12-Oct-18 10:43 43.558117 -111.575068 73 13024ft 108kts
12-Oct-18 10:44 43.560917 -111.542356 72 13474ft 109kts
12-Oct-18 10:45 43.564782 -111.495299 76 13801ft 134kts
12-Oct-18 10:46 43.568752 -111.441679 77 13990ft 147kts
12-Oct-18 10:47 43.573050 -111.384138 77 14003ft 153kts
12-Oct-18 10:48 43.577528 -111.325097 77 14001ft 155kts
12-Oct-18 10:49 43.582006 -111.265845 77 14004ft 155kts
12-Oct-18 10:50 43.586460 -111.206564 77 14005ft 155kts
12-Oct-18 10:51 43.590891 -111.147175 77 14006ft 155kts
12-Oct-18 10:52 43.595307 -111.087567 78 14000ft 156kts
12-Oct-18 10:53 43.600427 -111.017912 78 13991ft 156kts
12-Oct-18 10:54 43.604074 -110.967958 78 13985ft 157kts
12-Oct-18 10:55 43.608420 -110.907982 78 13976ft 157kts
12-Oct-18 10:56 43.612749 -110.847802 78 13967ft 157kts
12-Oct-18 10:57 43.617040 -110.787701 78 13961ft 157kts
12-Oct-18 10:58 43.631008 -110.721662 40 12693ft 154kts
12-Oct-18 10:59 43.652730 -110.693333 26 11005ft 127kts
12-Oct-18 11:00 43.684029 -110.670387 23 9132ft 127kts
12-Oct-18 11:01 43.714304 -110.660190 313 8042ft 125kts
12-Oct-18 11:02 43.701237 -110.688266 211 7858ft 90kts
12-Oct-18 11:03 43.677684 -110.703486 198 7694ft 102kts
12-Oct-18 11:04 43.654303 -110.714450 194 7309ft 85kts
12-Oct-18 11:05 43.628102 -110.727667 196 6809ft 78kts
12-Oct-18 11:06 43.612728 -110.735132 199 6468ft 47kts
12-Oct-18 11:07 43.608771 -110.735515 176 6454ft 9kts
12-Oct-18 11:08 43.603764 -110.737883 186 6454ft 12kts

Navigation Log

Ident Type
Flight plan parsing failed, navigation log unavailable